Carmel Valley, CA (93924)

12:01 PM PST on January 19, 2017 (GMT -0800)
Airport | | Change Station
Active Advisory: Small Craft Advisory

Elev 541 ft 36.48 °N, 121.72 °W | Updated 12 seconds ago

Overcast
Overcast
55.0 °F
Feels Like 55.0 °F
N
1.3
Wind Variable Wind from NW
Gusts 2.5 mph

Today
High -- | Low -- °F
--% Chance of Precip.
Yesterday
High -- | Low -- °F
Precip. -- in
Pressure 29.95 in
Visibility 10.0 miles
Clouds Few 4300 ft
Mostly Cloudy 5000 ft
Dew Point 48 °F
Humidity 77%
Rainfall 0.25 in
Snow Depth Not available.
7:16 AM 5:19 PM
Waning Gibbous, 51% visible
METAR KMRY 191954Z VRB05KT 10SM FEW043 BKN050 13/09 A2992 RMK AO2 SLP142 T01330094
Pressure 29.95 in
Visibility 10.0 miles
Clouds Few 4300 ft
Mostly Cloudy 5000 ft
Dew Point 48 °F
Humidity 77%
Rainfall 0.25 in
Snow Depth Not available.
7:16 AM 5:19 PM
Waning Gibbous, 51% visible
METAR KMRY 191954Z VRB05KT 10SM FEW043 BKN050 13/09 A2992 RMK AO2 SLP142 T01330094

Get Your Daily Forecast Email!

Thanks for signing up!

Be on the lookout for a verification email in your inbox.

You'll start receiving the daily forecast at 8 AM.

×

10-Day Weather Forecast

Almanac

Astronomy

Jan. 19, 2017 Rise Set
Actual Time
Civil Twilight
Nautical Twilight
Astronomical Twilight
Moon
Length of Visible Light
Length of Day
Tomorrow will be .
, % of the Moon is Illuminated

Today's Extremes

State Highs State Lows

Community

WunderPhotos

Upload Photos

1,962,540 photos uploaded!

WunderBlog® & News

Nearby

Air Quality

  Air Quality AQ Index Pollutant
Not available.

Snow Depth

Station Depth Elevation

Earthquake Activity

City Distance Mag. Time & Date
Minimum magnitude displayed is 2.5.

Coastal Water Temperatures

Place Temperature

Stations

Nearby Weather Stations

Station Location Temp. Windchill Dew Point Humidity Wind Precip. Elev Updated Type
                   

Watches & Warnings

Small Craft Advisory
Issued: 8:17 AM PST Jan. 19, 2017 – National Weather Service

... Small Craft Advisory remains in effect from 7 am to 9 PM PST
Friday...

* winds and waves: see the coastal waters forecast (cwfmtr) or
our marine Page at http://weather.Gov/sanfrancisco/marine.Php
for more details.

Precautionary/preparedness actions...

A Small Craft Advisory means that wind speeds of 21 to 33 knots
are expected to produce hazardous wave conditions to small craft.
Inexperienced mariners... especially those operating smaller
vessels should avoid navigating in these conditions.